sensor_id;sensor_type;location;lat;lon;timestamp;P1;durP1;ratioP1;P2;durP2;ratioP2
8628;SDS011;4352;49.404;11.092;2022-07-24T00:01:57;16.97;;;10.20;;
8628;SDS011;4352;49.404;11.092;2022-07-24T00:04:26;12.23;;;10.83;;
8628;SDS011;4352;49.404;11.092;2022-07-24T00:06:53;12.20;;;10.90;;
8628;SDS011;4352;49.404;11.092;2022-07-24T00:09:20;13.80;;;10.67;;
8628;SDS011;4352;49.404;11.092;2022-07-24T00:11:47;11.93;;;10.60;;
8628;SDS011;4352;49.404;11.092;2022-07-24T00:14:14;12.47;;;10.37;;
8628;SDS011;4352;49.404;11.092;2022-07-24T00:16:41;11.37;;;10.17;;
8628;SDS011;4352;49.404;11.092;2022-07-24T00:19:08;11.70;;;10.50;;
8628;SDS011;4352;49.404;11.092;2022-07-24T00:21:37;13.33;;;10.47;;
8628;SDS011;4352;49.404;11.092;2022-07-24T00:24:04;12.73;;;10.93;;
8628;SDS011;4352;49.404;11.092;2022-07-24T00:26:31;12.47;;;11.20;;
8628;SDS011;4352;49.404;11.092;2022-07-24T00:28:59;13.97;;;11.50;;
8628;SDS011;4352;49.404;11.092;2022-07-24T00:31:26;13.37;;;11.30;;
8628;SDS011;4352;49.404;11.092;2022-07-24T00:33:53;14.03;;;10.97;;
8628;SDS011;4352;49.404;11.092;2022-07-24T00:36:20;12.67;;;10.43;;
8628;SDS011;4352;49.404;11.092;2022-07-24T00:38:49;15.13;;;10.10;;
8628;SDS011;4352;49.404;11.092;2022-07-24T00:41:16;12.27;;;11.07;;
8628;SDS011;4352;49.404;11.092;2022-07-24T00:43:59;12.93;;;10.47;;
8628;SDS011;4352;49.404;11.092;2022-07-24T00:46:27;11.87;;;10.43;;
8628;SDS011;4352;49.404;11.092;2022-07-24T00:48:54;12.93;;;10.73;;
8628;SDS011;4352;49.404;11.092;2022-07-24T00:51:21;11.77;;;10.10;;
8628;SDS011;4352;49.404;11.092;2022-07-24T00:53:50;11.47;;;10.17;;
8628;SDS011;4352;49.404;11.092;2022-07-24T00:56:17;12.07;;;10.97;;
8628;SDS011;4352;49.404;11.092;2022-07-24T00:58:44;13.87;;;10.50;;
8628;SDS011;4352;49.404;11.092;2022-07-24T01:01:12;15.57;;;10.70;;
8628;SDS011;4352;49.404;11.092;2022-07-24T01:03:39;12.70;;;10.30;;
8628;SDS011;4352;49.404;11.092;2022-07-24T01:06:06;19.10;;;11.23;;
8628;SDS011;4352;49.404;11.092;2022-07-24T01:08:34;11.23;;;10.03;;
8628;SDS011;4352;49.404;11.092;2022-07-24T01:11:03;11.27;;;10.17;;
8628;SDS011;4352;49.404;11.092;2022-07-24T01:13:30;12.63;;;10.80;;
8628;SDS011;4352;49.404;11.092;2022-07-24T01:15:58;13.87;;;11.03;;
8628;SDS011;4352;49.404;11.092;2022-07-24T01:18:25;12.23;;;10.93;;
8628;SDS011;4352;49.404;11.092;2022-07-24T01:20:54;12.50;;;10.03;;
8628;SDS011;4352;49.404;11.092;2022-07-24T01:23:21;13.63;;;10.80;;
8628;SDS011;4352;49.404;11.092;2022-07-24T01:25:48;11.73;;;10.53;;
8628;SDS011;4352;49.404;11.092;2022-07-24T01:28:16;13.03;;;10.50;;
8628;SDS011;4352;49.404;11.092;2022-07-24T01:33:46;11.10;;;9.77;;
8628;SDS011;4352;49.404;11.092;2022-07-24T01:36:15;11.33;;;10.13;;
8628;SDS011;4352;49.404;11.092;2022-07-24T01:38:42;12.47;;;10.63;;
8628;SDS011;4352;49.404;11.092;2022-07-24T01:41:09;11.73;;;10.60;;
8628;SDS011;4352;49.404;11.092;2022-07-24T01:43:36;11.97;;;10.77;;
8628;SDS011;4352;49.404;11.092;2022-07-24T01:46:04;14.30;;;10.70;;
8628;SDS011;4352;49.404;11.092;2022-07-24T01:48:31;11.00;;;9.93;;
8628;SDS011;4352;49.404;11.092;2022-07-24T01:50:58;12.60;;;10.30;;
8628;SDS011;4352;49.404;11.092;2022-07-24T01:53:26;11.77;;;10.57;;
8628;SDS011;4352;49.404;11.092;2022-07-24T01:55:54;13.90;;;10.87;;
8628;SDS011;4352;49.404;11.092;2022-07-24T01:58:21;12.43;;;11.23;;
8628;SDS011;4352;49.404;11.092;2022-07-24T02:00:48;12.87;;;11.57;;
8628;SDS011;4352;49.404;11.092;2022-07-24T02:03:16;12.87;;;11.33;;
8628;SDS011;4352;49.404;11.092;2022-07-24T02:05:43;12.07;;;10.80;;
8628;SDS011;4352;49.404;11.092;2022-07-24T02:08:10;12.87;;;11.30;;
8628;SDS011;4352;49.404;11.092;2022-07-24T02:10:38;13.77;;;12.03;;
8628;SDS011;4352;49.404;11.092;2022-07-24T02:13:06;12.77;;;11.30;;
8628;SDS011;4352;49.404;11.092;2022-07-24T02:15:33;13.13;;;10.90;;
8628;SDS011;4352;49.404;11.092;2022-07-24T02:18:01;15.23;;;12.07;;
8628;SDS011;4352;49.404;11.092;2022-07-24T02:20:28;14.37;;;11.10;;
8628;SDS011;4352;49.404;11.092;2022-07-24T02:22:55;14.17;;;12.07;;
8628;SDS011;4352;49.404;11.092;2022-07-24T02:25:22;16.10;;;12.20;;
8628;SDS011;4352;49.404;11.092;2022-07-24T02:27:51;13.80;;;12.37;;
8628;SDS011;4352;49.404;11.092;2022-07-24T02:30:20;13.53;;;11.80;;
8628;SDS011;4352;49.404;11.092;2022-07-24T02:32:47;12.63;;;11.33;;
8628;SDS011;4352;49.404;11.092;2022-07-24T02:35:14;15.33;;;11.03;;
8628;SDS011;4352;49.404;11.092;2022-07-24T02:37:42;14.83;;;11.33;;
8628;SDS011;4352;49.404;11.092;2022-07-24T02:40:11;13.53;;;11.33;;
8628;SDS011;4352;49.404;11.092;2022-07-24T02:42:38;13.73;;;12.30;;
8628;SDS011;4352;49.404;11.092;2022-07-24T02:45:07;13.73;;;12.33;;
8628;SDS011;4352;49.404;11.092;2022-07-24T02:47:34;14.13;;;11.33;;
8628;SDS011;4352;49.404;11.092;2022-07-24T02:50:02;15.87;;;12.20;;
8628;SDS011;4352;49.404;11.092;2022-07-24T02:52:29;13.93;;;12.03;;
8628;SDS011;4352;49.404;11.092;2022-07-24T02:54:58;13.83;;;11.77;;
8628;SDS011;4352;49.404;11.092;2022-07-24T02:57:25;14.20;;;12.20;;
8628;SDS011;4352;49.404;11.092;2022-07-24T02:59:52;13.33;;;11.73;;
8628;SDS011;4352;49.404;11.092;2022-07-24T03:02:20;13.60;;;12.20;;
8628;SDS011;4352;49.404;11.092;2022-07-24T03:04:47;13.13;;;11.80;;
8628;SDS011;4352;49.404;11.092;2022-07-24T03:07:14;14.80;;;12.67;;
8628;SDS011;4352;49.404;11.092;2022-07-24T03:09:41;12.97;;;11.67;;
8628;SDS011;4352;49.404;11.092;2022-07-24T03:12:08;13.97;;;12.47;;
8628;SDS011;4352;49.404;11.092;2022-07-24T03:14:36;14.90;;;12.40;;
8628;SDS011;4352;49.404;11.092;2022-07-24T03:17:03;14.63;;;13.13;;
8628;SDS011;4352;49.404;11.092;2022-07-24T03:19:32;15.47;;;13.50;;
8628;SDS011;4352;49.404;11.092;2022-07-24T03:21:59;16.20;;;12.63;;
8628;SDS011;4352;49.404;11.092;2022-07-24T03:24:26;13.10;;;11.80;;
8628;SDS011;4352;49.404;11.092;2022-07-24T03:26:53;17.13;;;12.10;;
8628;SDS011;4352;49.404;11.092;2022-07-24T03:29:20;18.27;;;13.53;;
8628;SDS011;4352;49.404;11.092;2022-07-24T03:31:47;14.40;;;12.90;;
8628;SDS011;4352;49.404;11.092;2022-07-24T03:34:14;15.97;;;13.33;;
8628;SDS011;4352;49.404;11.092;2022-07-24T03:36:43;14.27;;;12.67;;
8628;SDS011;4352;49.404;11.092;2022-07-24T03:39:10;13.80;;;12.30;;
8628;SDS011;4352;49.404;11.092;2022-07-24T03:41:37;14.27;;;12.43;;
8628;SDS011;4352;49.404;11.092;2022-07-24T03:44:04;13.33;;;12.00;;
8628;SDS011;4352;49.404;11.092;2022-07-24T03:46:31;14.47;;;12.57;;
8628;SDS011;4352;49.404;11.092;2022-07-24T03:48:58;15.30;;;13.40;;
8628;SDS011;4352;49.404;11.092;2022-07-24T03:51:25;13.73;;;12.33;;
8628;SDS011;4352;49.404;11.092;2022-07-24T03:53:54;16.07;;;13.23;;
8628;SDS011;4352;49.404;11.092;2022-07-24T03:56:21;17.63;;;12.67;;
8628;SDS011;4352;49.404;11.092;2022-07-24T03:58:48;18.17;;;13.53;;
8628;SDS011;4352;49.404;11.092;2022-07-24T04:01:15;14.00;;;12.13;;
8628;SDS011;4352;49.404;11.092;2022-07-24T04:03:42;15.13;;;13.17;;
8628;SDS011;4352;49.404;11.092;2022-07-24T04:06:09;16.20;;;13.43;;
8628;SDS011;4352;49.404;11.092;2022-07-24T04:08:37;14.67;;;13.17;;
8628;SDS011;4352;49.404;11.092;2022-07-24T04:11:05;14.50;;;12.87;;
8628;SDS011;4352;49.404;11.092;2022-07-24T04:13:33;13.90;;;11.90;;
8628;SDS011;4352;49.404;11.092;2022-07-24T04:16:00;14.83;;;12.83;;
8628;SDS011;4352;49.404;11.092;2022-07-24T04:18:27;13.67;;;12.37;;
8628;SDS011;4352;49.404;11.092;2022-07-24T04:20:54;14.77;;;13.30;;
8628;SDS011;4352;49.404;11.092;2022-07-24T04:23:21;14.60;;;12.97;;
8628;SDS011;4352;49.404;11.092;2022-07-24T04:25:48;14.13;;;12.47;;
8628;SDS011;4352;49.404;11.092;2022-07-24T04:28:16;13.87;;;12.47;;
8628;SDS011;4352;49.404;11.092;2022-07-24T04:30:43;15.17;;;12.37;;
8628;SDS011;4352;49.404;11.092;2022-07-24T04:33:10;13.63;;;12.20;;
8628;SDS011;4352;49.404;11.092;2022-07-24T04:35:37;13.20;;;11.80;;
8628;SDS011;4352;49.404;11.092;2022-07-24T04:38:04;14.50;;;13.00;;
8628;SDS011;4352;49.404;11.092;2022-07-24T04:40:32;13.47;;;12.13;;
8628;SDS011;4352;49.404;11.092;2022-07-24T04:42:59;14.53;;;11.93;;
8628;SDS011;4352;49.404;11.092;2022-07-24T04:45:27;14.10;;;12.70;;
8628;SDS011;4352;49.404;11.092;2022-07-24T04:47:54;14.73;;;12.47;;
8628;SDS011;4352;49.404;11.092;2022-07-24T04:50:21;13.47;;;12.10;;
8628;SDS011;4352;49.404;11.092;2022-07-24T04:52:48;14.43;;;12.77;;
8628;SDS011;4352;49.404;11.092;2022-07-24T04:55:15;14.33;;;11.80;;
8628;SDS011;4352;49.404;11.092;2022-07-24T04:57:42;13.57;;;12.23;;
8628;SDS011;4352;49.404;11.092;2022-07-24T05:00:10;14.73;;;12.43;;
8628;SDS011;4352;49.404;11.092;2022-07-24T05:02:39;14.03;;;12.47;;
8628;SDS011;4352;49.404;11.092;2022-07-24T05:05:06;14.60;;;13.20;;
8628;SDS011;4352;49.404;11.092;2022-07-24T05:07:34;14.50;;;13.03;;
8628;SDS011;4352;49.404;11.092;2022-07-24T05:10:01;14.13;;;12.73;;
8628;SDS011;4352;49.404;11.092;2022-07-24T05:12:28;13.17;;;11.87;;
8628;SDS011;4352;49.404;11.092;2022-07-24T05:14:55;14.00;;;12.37;;
8628;SDS011;4352;49.404;11.092;2022-07-24T05:17:22;17.20;;;12.40;;
8628;SDS011;4352;49.404;11.092;2022-07-24T05:19:51;14.37;;;12.97;;
8628;SDS011;4352;49.404;11.092;2022-07-24T05:22:18;13.67;;;12.33;;
8628;SDS011;4352;49.404;11.092;2022-07-24T05:24:45;14.47;;;12.80;;
8628;SDS011;4352;49.404;11.092;2022-07-24T05:27:12;16.50;;;13.57;;
8628;SDS011;4352;49.404;11.092;2022-07-24T05:29:39;14.53;;;13.13;;
8628;SDS011;4352;49.404;11.092;2022-07-24T05:32:06;13.87;;;12.50;;
8628;SDS011;4352;49.404;11.092;2022-07-24T05:34:33;14.50;;;13.07;;
8628;SDS011;4352;49.404;11.092;2022-07-24T05:37:01;14.53;;;13.13;;
8628;SDS011;4352;49.404;11.092;2022-07-24T05:39:28;14.20;;;12.87;;
8628;SDS011;4352;49.404;11.092;2022-07-24T05:41:56;14.23;;;12.43;;
8628;SDS011;4352;49.404;11.092;2022-07-24T05:44:23;16.77;;;13.10;;
8628;SDS011;4352;49.404;11.092;2022-07-24T05:46:50;16.30;;;13.57;;
8628;SDS011;4352;49.404;11.092;2022-07-24T05:49:17;13.80;;;12.50;;
8628;SDS011;4352;49.404;11.092;2022-07-24T05:51:44;14.10;;;12.70;;
8628;SDS011;4352;49.404;11.092;2022-07-24T05:54:12;15.10;;;12.90;;
8628;SDS011;4352;49.404;11.092;2022-07-24T05:56:39;15.57;;;13.03;;
8628;SDS011;4352;49.404;11.092;2022-07-24T05:59:06;14.37;;;12.23;;
8628;SDS011;4352;49.404;11.092;2022-07-24T06:01:33;13.60;;;12.20;;
8628;SDS011;4352;49.404;11.092;2022-07-24T06:04:00;13.70;;;12.40;;
8628;SDS011;4352;49.404;11.092;2022-07-24T06:06:27;13.67;;;12.33;;
8628;SDS011;4352;49.404;11.092;2022-07-24T06:08:54;13.83;;;12.50;;
8628;SDS011;4352;49.404;11.092;2022-07-24T06:11:23;14.00;;;11.93;;
8628;SDS011;4352;49.404;11.092;2022-07-24T06:13:50;12.30;;;11.10;;
8628;SDS011;4352;49.404;11.092;2022-07-24T06:16:17;15.23;;;12.27;;
8628;SDS011;4352;49.404;11.092;2022-07-24T06:18:44;15.70;;;11.73;;
8628;SDS011;4352;49.404;11.092;2022-07-24T06:21:11;12.23;;;10.93;;
8628;SDS011;4352;49.404;11.092;2022-07-24T06:23:38;13.10;;;11.10;;
8628;SDS011;4352;49.404;11.092;2022-07-24T06:26:05;13.20;;;11.83;;
8628;SDS011;4352;49.404;11.092;2022-07-24T06:28:34;15.83;;;11.10;;
8628;SDS011;4352;49.404;11.092;2022-07-24T06:31:01;13.13;;;11.40;;
8628;SDS011;4352;49.404;11.092;2022-07-24T06:33:28;11.90;;;10.40;;
8628;SDS011;4352;49.404;11.092;2022-07-24T06:35:55;11.73;;;10.63;;
8628;SDS011;4352;49.404;11.092;2022-07-24T06:38:22;10.80;;;9.70;;
8628;SDS011;4352;49.404;11.092;2022-07-24T06:40:49;15.30;;;9.97;;
8628;SDS011;4352;49.404;11.092;2022-07-24T06:43:16;11.53;;;10.03;;
8628;SDS011;4352;49.404;11.092;2022-07-24T06:45:45;11.33;;;10.33;;
8628;SDS011;4352;49.404;11.092;2022-07-24T06:48:12;11.00;;;10.00;;
8628;SDS011;4352;49.404;11.092;2022-07-24T06:50:39;11.53;;;10.10;;
8628;SDS011;4352;49.404;11.092;2022-07-24T06:53:06;10.33;;;9.43;;
8628;SDS011;4352;49.404;11.092;2022-07-24T06:55:33;12.57;;;9.30;;
8628;SDS011;4352;49.404;11.092;2022-07-24T06:58:00;10.87;;;9.67;;
8628;SDS011;4352;49.404;11.092;2022-07-24T07:00:27;11.97;;;10.40;;
8628;SDS011;4352;49.404;11.092;2022-07-24T07:02:55;11.30;;;10.20;;
8628;SDS011;4352;49.404;11.092;2022-07-24T07:05:22;11.20;;;10.07;;
8628;SDS011;4352;49.404;11.092;2022-07-24T07:07:50;10.87;;;9.77;;
8628;SDS011;4352;49.404;11.092;2022-07-24T07:10:17;14.37;;;10.60;;
8628;SDS011;4352;49.404;11.092;2022-07-24T07:12:44;12.07;;;9.20;;
8628;SDS011;4352;49.404;11.092;2022-07-24T07:15:11;11.93;;;10.70;;
8628;SDS011;4352;49.404;11.092;2022-07-24T07:17:39;10.40;;;9.47;;
8628;SDS011;4352;49.404;11.092;2022-07-24T07:20:08;10.97;;;9.97;;
8628;SDS011;4352;49.404;11.092;2022-07-24T07:22:35;10.43;;;9.30;;
8628;SDS011;4352;49.404;11.092;2022-07-24T07:25:03;11.20;;;10.03;;
8628;SDS011;4352;49.404;11.092;2022-07-24T07:27:30;11.17;;;10.07;;
8628;SDS011;4352;49.404;11.092;2022-07-24T07:29:57;11.90;;;9.97;;
8628;SDS011;4352;49.404;11.092;2022-07-24T07:32:24;11.93;;;10.70;;
8628;SDS011;4352;49.404;11.092;2022-07-24T07:34:51;10.33;;;9.43;;
8628;SDS011;4352;49.404;11.092;2022-07-24T07:37:20;10.43;;;9.43;;
8628;SDS011;4352;49.404;11.092;2022-07-24T07:39:47;11.17;;;10.13;;
8628;SDS011;4352;49.404;11.092;2022-07-24T07:42:14;10.30;;;9.33;;
8628;SDS011;4352;49.404;11.092;2022-07-24T07:44:41;11.30;;;10.10;;
8628;SDS011;4352;49.404;11.092;2022-07-24T07:47:08;10.70;;;9.70;;
8628;SDS011;4352;49.404;11.092;2022-07-24T07:49:35;10.63;;;8.70;;
8628;SDS011;4352;49.404;11.092;2022-07-24T07:52:02;10.37;;;9.37;;
8628;SDS011;4352;49.404;11.092;2022-07-24T07:54:31;10.13;;;9.13;;
8628;SDS011;4352;49.404;11.092;2022-07-24T07:56:58;10.07;;;9.07;;
8628;SDS011;4352;49.404;11.092;2022-07-24T07:59:25;10.20;;;9.17;;
8628;SDS011;4352;49.404;11.092;2022-07-24T08:01:52;10.53;;;9.53;;
8628;SDS011;4352;49.404;11.092;2022-07-24T08:04:19;9.93;;;9.03;;
8628;SDS011;4352;49.404;11.092;2022-07-24T08:06:46;10.97;;;9.87;;
8628;SDS011;4352;49.404;11.092;2022-07-24T08:09:13;9.83;;;8.53;;
8628;SDS011;4352;49.404;11.092;2022-07-24T08:11:42;11.40;;;9.03;;
8628;SDS011;4352;49.404;11.092;2022-07-24T08:14:09;11.48;;;8.77;;
8628;SDS011;4352;49.404;11.092;2022-07-24T08:16:36;9.57;;;8.60;;
8628;SDS011;4352;49.404;11.092;2022-07-24T08:19:03;10.05;;;8.38;;
8628;SDS011;4352;49.404;11.092;2022-07-24T08:21:31;9.73;;;8.82;;
8628;SDS011;4352;49.404;11.092;2022-07-24T08:23:58;9.15;;;8.38;;
8628;SDS011;4352;49.404;11.092;2022-07-24T08:26:25;9.40;;;8.50;;
8628;SDS011;4352;49.404;11.092;2022-07-24T08:28:57;8.10;;;7.25;;
8628;SDS011;4352;49.404;11.092;2022-07-24T08:31:24;8.82;;;8.02;;
8628;SDS011;4352;49.404;11.092;2022-07-24T08:33:51;9.07;;;8.20;;
8628;SDS011;4352;49.404;11.092;2022-07-24T08:36:19;8.75;;;7.47;;
8628;SDS011;4352;49.404;11.092;2022-07-24T08:38:46;7.72;;;6.93;;
8628;SDS011;4352;49.404;11.092;2022-07-24T08:41:13;8.40;;;6.70;;
8628;SDS011;4352;49.404;11.092;2022-07-24T08:43:40;7.53;;;6.82;;
8628;SDS011;4352;49.404;11.092;2022-07-24T08:46:09;8.02;;;6.47;;
8628;SDS011;4352;49.404;11.092;2022-07-24T08:48:37;8.75;;;6.40;;
8628;SDS011;4352;49.404;11.092;2022-07-24T08:51:07;6.80;;;6.20;;
8628;SDS011;4352;49.404;11.092;2022-07-24T08:53:34;7.57;;;6.40;;
8628;SDS011;4352;49.404;11.092;2022-07-24T08:56:02;7.40;;;6.03;;
8628;SDS011;4352;49.404;11.092;2022-07-24T08:58:29;9.75;;;6.43;;
8628;SDS011;4352;49.404;11.092;2022-07-24T09:00:56;6.40;;;5.78;;
8628;SDS011;4352;49.404;11.092;2022-07-24T09:03:24;6.88;;;6.13;;
8628;SDS011;4352;49.404;11.092;2022-07-24T09:05:52;6.25;;;5.65;;
8628;SDS011;4352;49.404;11.092;2022-07-24T09:08:19;6.82;;;6.20;;
8628;SDS011;4352;49.404;11.092;2022-07-24T09:10:53;7.03;;;6.35;;
8628;SDS011;4352;49.404;11.092;2022-07-24T09:13:20;6.63;;;6.10;;
8628;SDS011;4352;49.404;11.092;2022-07-24T09:15:47;10.52;;;5.97;;
8628;SDS011;4352;49.404;11.092;2022-07-24T09:18:26;7.07;;;5.95;;
8628;SDS011;4352;49.404;11.092;2022-07-24T09:20:53;9.05;;;6.57;;
8628;SDS011;4352;49.404;11.092;2022-07-24T09:23:21;6.70;;;6.10;;
8628;SDS011;4352;49.404;11.092;2022-07-24T09:25:51;5.63;;;5.13;;
8628;SDS011;4352;49.404;11.092;2022-07-24T09:28:19;6.38;;;5.82;;
8628;SDS011;4352;49.404;11.092;2022-07-24T09:30:47;6.95;;;5.60;;
8628;SDS011;4352;49.404;11.092;2022-07-24T09:33:15;6.68;;;6.00;;
8628;SDS011;4352;49.404;11.092;2022-07-24T09:35:44;7.15;;;6.50;;
8628;SDS011;4352;49.404;11.092;2022-07-24T09:38:12;6.05;;;5.45;;
8628;SDS011;4352;49.404;11.092;2022-07-24T09:40:41;7.07;;;6.22;;
8628;SDS011;4352;49.404;11.092;2022-07-24T09:43:15;7.25;;;5.85;;
8628;SDS011;4352;49.404;11.092;2022-07-24T09:45:56;8.90;;;5.80;;
8628;SDS011;4352;49.404;11.092;2022-07-24T09:48:24;6.40;;;5.80;;
8628;SDS011;4352;49.404;11.092;2022-07-24T09:50:53;7.70;;;6.60;;
8628;SDS011;4352;49.404;11.092;2022-07-24T09:53:21;6.35;;;5.85;;
8628;SDS011;4352;49.404;11.092;2022-07-24T09:56:04;5.95;;;5.45;;
8628;SDS011;4352;49.404;11.092;2022-07-24T09:58:32;6.80;;;5.68;;
8628;SDS011;4352;49.404;11.092;2022-07-24T10:01:00;6.60;;;6.00;;
8628;SDS011;4352;49.404;11.092;2022-07-24T10:03:28;6.55;;;5.95;;
8628;SDS011;4352;49.404;11.092;2022-07-24T10:05:58;6.35;;;5.78;;
8628;SDS011;4352;49.404;11.092;2022-07-24T10:08:26;7.75;;;6.10;;
8628;SDS011;4352;49.404;11.092;2022-07-24T10:10:53;6.80;;;5.20;;
8628;SDS011;4352;49.404;11.092;2022-07-24T10:13:21;6.10;;;5.55;;
8628;SDS011;4352;49.404;11.092;2022-07-24T10:15:53;7.07;;;6.32;;
8628;SDS011;4352;49.404;11.092;2022-07-24T10:18:20;6.70;;;6.00;;
8628;SDS011;4352;49.404;11.092;2022-07-24T10:20:49;7.05;;;5.75;;
8628;SDS011;4352;49.404;11.092;2022-07-24T10:23:23;6.63;;;6.03;;
8628;SDS011;4352;49.404;11.092;2022-07-24T10:25:54;7.05;;;6.43;;
8628;SDS011;4352;49.404;11.092;2022-07-24T10:28:31;6.22;;;5.63;;
8628;SDS011;4352;49.404;11.092;2022-07-24T10:31:00;7.75;;;5.45;;
8628;SDS011;4352;49.404;11.092;2022-07-24T10:33:28;6.35;;;5.75;;
8628;SDS011;4352;49.404;11.092;2022-07-24T10:35:55;6.35;;;5.65;;
8628;SDS011;4352;49.404;11.092;2022-07-24T10:38:28;5.82;;;5.32;;
8628;SDS011;4352;49.404;11.092;2022-07-24T10:40:58;5.45;;;5.03;;
8628;SDS011;4352;49.404;11.092;2022-07-24T10:43:28;6.43;;;5.47;;
8628;SDS011;4352;49.404;11.092;2022-07-24T10:46:11;6.55;;;5.95;;
8628;SDS011;4352;49.404;11.092;2022-07-24T10:48:39;6.05;;;5.45;;
8628;SDS011;4352;49.404;11.092;2022-07-24T10:51:08;6.10;;;5.45;;
8628;SDS011;4352;49.404;11.092;2022-07-24T10:53:46;6.00;;;5.40;;
8628;SDS011;4352;49.404;11.092;2022-07-24T10:56:15;6.28;;;5.70;;
8628;SDS011;4352;49.404;11.092;2022-07-24T11:01:28;7.30;;;5.85;;
8628;SDS011;4352;49.404;11.092;2022-07-24T11:03:56;6.20;;;5.60;;
8628;SDS011;4352;49.404;11.092;2022-07-24T11:06:37;6.88;;;5.50;;
8628;SDS011;4352;49.404;11.092;2022-07-24T11:09:06;6.05;;;5.45;;
8628;SDS011;4352;49.404;11.092;2022-07-24T11:11:33;5.75;;;5.20;;
8628;SDS011;4352;49.404;11.092;2022-07-24T11:14:00;5.88;;;5.38;;
8628;SDS011;4352;49.404;11.092;2022-07-24T11:16:31;7.57;;;5.60;;
8628;SDS011;4352;49.404;11.092;2022-07-24T11:21:44;6.65;;;5.63;;
8628;SDS011;4352;49.404;11.092;2022-07-24T11:24:17;6.68;;;5.20;;
8628;SDS011;4352;49.404;11.092;2022-07-24T11:26:48;6.22;;;5.80;;
8628;SDS011;4352;49.404;11.092;2022-07-24T11:29:16;5.95;;;5.18;;
8628;SDS011;4352;49.404;11.092;2022-07-24T11:31:44;6.35;;;5.85;;
8628;SDS011;4352;49.404;11.092;2022-07-24T11:34:11;7.53;;;5.25;;
8628;SDS011;4352;49.404;11.092;2022-07-24T11:36:39;6.10;;;5.60;;
8628;SDS011;4352;49.404;11.092;2022-07-24T11:39:07;6.03;;;5.53;;
8628;SDS011;4352;49.404;11.092;2022-07-24T11:41:45;7.10;;;6.00;;
8628;SDS011;4352;49.404;11.092;2022-07-24T11:44:12;6.00;;;5.50;;
8628;SDS011;4352;49.404;11.092;2022-07-24T11:46:40;6.07;;;5.40;;
8628;SDS011;4352;49.404;11.092;2022-07-24T11:49:07;7.07;;;4.93;;
8628;SDS011;4352;49.404;11.092;2022-07-24T11:51:40;6.32;;;5.53;;
8628;SDS011;4352;49.404;11.092;2022-07-24T11:54:08;6.15;;;5.55;;
8628;SDS011;4352;49.404;11.092;2022-07-24T11:56:35;5.88;;;5.15;;
8628;SDS011;4352;49.404;11.092;2022-07-24T11:59:03;6.57;;;5.32;;
8628;SDS011;4352;49.404;11.092;2022-07-24T12:01:30;5.68;;;5.18;;
8628;SDS011;4352;49.404;11.092;2022-07-24T12:03:58;5.13;;;4.72;;
8628;SDS011;4352;49.404;11.092;2022-07-24T12:06:26;5.93;;;5.32;;
8628;SDS011;4352;49.404;11.092;2022-07-24T12:08:56;6.07;;;5.57;;
8628;SDS011;4352;49.404;11.092;2022-07-24T12:11:23;5.28;;;4.78;;
8628;SDS011;4352;49.404;11.092;2022-07-24T12:13:50;7.30;;;5.20;;
8628;SDS011;4352;49.404;11.092;2022-07-24T12:16:23;6.03;;;5.50;;
8628;SDS011;4352;49.404;11.092;2022-07-24T12:18:50;7.40;;;6.05;;
8628;SDS011;4352;49.404;11.092;2022-07-24T12:21:18;6.38;;;5.70;;
8628;SDS011;4352;49.404;11.092;2022-07-24T12:23:45;5.90;;;5.20;;
8628;SDS011;4352;49.404;11.092;2022-07-24T12:26:12;5.78;;;5.28;;
8628;SDS011;4352;49.404;11.092;2022-07-24T12:28:39;5.55;;;5.05;;
8628;SDS011;4352;49.404;11.092;2022-07-24T12:31:07;5.80;;;4.97;;
8628;SDS011;4352;49.404;11.092;2022-07-24T12:33:36;5.93;;;5.43;;
8628;SDS011;4352;49.404;11.092;2022-07-24T12:36:04;5.93;;;5.43;;
8628;SDS011;4352;49.404;11.092;2022-07-24T12:38:35;6.85;;;6.10;;
8628;SDS011;4352;49.404;11.092;2022-07-24T12:41:07;6.38;;;5.82;;
8628;SDS011;4352;49.404;11.092;2022-07-24T12:43:45;5.90;;;5.40;;
8628;SDS011;4352;49.404;11.092;2022-07-24T12:46:12;6.93;;;6.20;;
8628;SDS011;4352;49.404;11.092;2022-07-24T12:48:54;6.22;;;5.72;;
8628;SDS011;4352;49.404;11.092;2022-07-24T12:51:22;8.10;;;6.03;;
8628;SDS011;4352;49.404;11.092;2022-07-24T12:53:52;5.88;;;5.22;;
8628;SDS011;4352;49.404;11.092;2022-07-24T12:56:19;6.38;;;5.78;;
8628;SDS011;4352;49.404;11.092;2022-07-24T12:58:50;7.05;;;5.32;;
8628;SDS011;4352;49.404;11.092;2022-07-24T13:01:17;6.00;;;5.50;;
8628;SDS011;4352;49.404;11.092;2022-07-24T13:03:50;9.52;;;5.13;;
8628;SDS011;4352;49.404;11.092;2022-07-24T13:06:17;6.40;;;5.57;;
8628;SDS011;4352;49.404;11.092;2022-07-24T13:08:45;5.80;;;5.20;;
8628;SDS011;4352;49.404;11.092;2022-07-24T13:11:12;6.22;;;5.43;;
8628;SDS011;4352;49.404;11.092;2022-07-24T13:13:39;6.00;;;5.30;;
8628;SDS011;4352;49.404;11.092;2022-07-24T13:16:06;6.30;;;5.70;;
8628;SDS011;4352;49.404;11.092;2022-07-24T13:18:35;5.80;;;5.30;;
8628;SDS011;4352;49.404;11.092;2022-07-24T13:21:04;9.38;;;5.72;;
8628;SDS011;4352;49.404;11.092;2022-07-24T13:23:32;5.50;;;5.00;;
8628;SDS011;4352;49.404;11.092;2022-07-24T13:25:59;5.53;;;5.03;;
8628;SDS011;4352;49.404;11.092;2022-07-24T13:28:26;5.55;;;5.15;;
8628;SDS011;4352;49.404;11.092;2022-07-24T13:30:55;5.57;;;5.15;;
8628;SDS011;4352;49.404;11.092;2022-07-24T13:33:22;5.32;;;4.93;;
8628;SDS011;4352;49.404;11.092;2022-07-24T13:35:50;5.10;;;4.70;;
8628;SDS011;4352;49.404;11.092;2022-07-24T13:38:18;5.68;;;5.20;;
8628;SDS011;4352;49.404;11.092;2022-07-24T13:40:45;6.10;;;5.60;;
8628;SDS011;4352;49.404;11.092;2022-07-24T13:43:13;7.95;;;6.15;;
8628;SDS011;4352;49.404;11.092;2022-07-24T13:45:40;9.18;;;6.63;;
8628;SDS011;4352;49.404;11.092;2022-07-24T13:48:07;6.43;;;5.88;;
8628;SDS011;4352;49.404;11.092;2022-07-24T13:50:34;6.82;;;6.32;;
8628;SDS011;4352;49.404;11.092;2022-07-24T13:53:01;5.95;;;5.45;;
8628;SDS011;4352;49.404;11.092;2022-07-24T13:55:31;5.50;;;5.00;;
8628;SDS011;4352;49.404;11.092;2022-07-24T13:57:58;5.97;;;5.47;;
8628;SDS011;4352;49.404;11.092;2022-07-24T14:00:25;6.38;;;5.47;;
8628;SDS011;4352;49.404;11.092;2022-07-24T14:02:53;7.25;;;5.80;;
8628;SDS011;4352;49.404;11.092;2022-07-24T14:05:21;6.75;;;5.38;;
8628;SDS011;4352;49.404;11.092;2022-07-24T14:07:48;6.03;;;5.43;;
8628;SDS011;4352;49.404;11.092;2022-07-24T14:10:15;7.80;;;5.70;;
8628;SDS011;4352;49.404;11.092;2022-07-24T14:12:44;5.45;;;4.95;;
8628;SDS011;4352;49.404;11.092;2022-07-24T14:15:11;7.15;;;6.55;;
8628;SDS011;4352;49.404;11.092;2022-07-24T14:17:39;7.32;;;5.35;;
8628;SDS011;4352;49.404;11.092;2022-07-24T14:20:07;5.97;;;5.47;;
8628;SDS011;4352;49.404;11.092;2022-07-24T14:22:34;5.57;;;5.07;;
8628;SDS011;4352;49.404;11.092;2022-07-24T14:25:01;6.28;;;5.18;;
8628;SDS011;4352;49.404;11.092;2022-07-24T14:27:28;5.07;;;4.68;;
8628;SDS011;4352;49.404;11.092;2022-07-24T14:29:58;5.60;;;4.97;;
8628;SDS011;4352;49.404;11.092;2022-07-24T14:32:26;9.82;;;8.32;;
8628;SDS011;4352;49.404;11.092;2022-07-24T14:34:53;6.88;;;6.07;;
8628;SDS011;4352;49.404;11.092;2022-07-24T14:37:20;10.63;;;9.02;;
8628;SDS011;4352;49.404;11.092;2022-07-24T14:39:47;5.15;;;4.75;;
8628;SDS011;4352;49.404;11.092;2022-07-24T14:42:15;9.02;;;8.23;;
8628;SDS011;4352;49.404;11.092;2022-07-24T14:44:42;5.93;;;5.40;;
8628;SDS011;4352;49.404;11.092;2022-07-24T14:47:11;5.53;;;5.03;;
8628;SDS011;4352;49.404;11.092;2022-07-24T14:49:38;5.65;;;5.20;;
8628;SDS011;4352;49.404;11.092;2022-07-24T14:52:05;10.73;;;9.75;;
8628;SDS011;4352;49.404;11.092;2022-07-24T14:54:32;6.40;;;5.80;;
8628;SDS011;4352;49.404;11.092;2022-07-24T14:57:01;17.40;;;14.13;;
8628;SDS011;4352;49.404;11.092;2022-07-24T14:59:29;14.65;;;13.25;;
8628;SDS011;4352;49.404;11.092;2022-07-24T15:01:56;6.03;;;5.43;;